Ride Results

Kilkivan Klassic (08-07-2007)
Ride distance: 80.0 km

Outcomes - Kilkivan Klassic (08-07-2007)
Division No. of Entries Retired / DNE Completed Withdrawn Ineligible V/O Percentage Completed
HW 17 - 13 1 1 2 76.47%
MW 37 - 30 2 - 5 81.08%
LW 16 - 13 - - 3 81.25%
JN 8 - 7 - - 1 87.50%
Totals 78 - 63 3 1 11 80.77%
Results - Kilkivan Klassic (08-07-2007)
No. Rider Horse Place Time Leg Speeds Total
Km/Hr
H/R bpm
Heavyweight
160 Jonnie White Die Kinder Spyder 1 3:53:00 21.6, 19.6 20.60 26, 37, 45 (Avg:41)
176 David Horton Penwisk Ice Magic 2 4:11:00 19.5, 18.7 19.12 36, 49, 58 (Avg:53)
166 Ced Fry Roxborough Paragon 3 4:57:00 18.0, 14.6 16.16 38, 41, 49 (Avg:45)
138 Tim Weismann Hirstglen Kezia 4 5:00:00 15.5, 16.4 16.00 29, 35, 43 (Avg:39)
137 Noel Weismann Hirstglen Maybe 5 5:19:00 15.5, 14.5 15.05 32, 41, 46 (Avg:43)
109 Steve Swan Longrun Domino 6 5:20:00 16.1, 14.0 15.00 34, 47, 36 (Avg:41)
114 Paul Fitzgerald Merton Amadeus 7 5:25:00 17.3, 12.8 14.77 30, 44, 58 (Avg:51)
181 Maurice Gray Chazar Fire Nic Ice 8 6:02:00 13.3, 13.1 13.26 45, 45, 46 (Avg:45)
146 Paul Lengronne Count Lea 9 6:11:00 13.2, 12.6 12.94 34, 40, 42 (Avg:41)
115 Nicole Urquhart Mithras Emerald 10 6:36:00 12.9, 11.4 12.12 32, 42, 52 (Avg:47)
150 Mick Hill Roxborough Ribuck 11 6:42:00 13.2, 10.8 11.94 33, 46, 49 (Avg:47)
102 Joyce McGowan Teleman 12 7:57:00 10.6, 9.5 10.06 33, 40, 34 (Avg:37)
126 Lisa Ash Shardell Patrice 13 8:05:00 10.6, 9.2 9.90 34, 43, 47 (Avg:45)
112 Peter Casey Lagoon Hill Rapadash Disqualified L1 0:00:00 11.7 - 30, 38 (Avg:38)
151 Jan McPherson Follydown Bint Ajouz Lame L1 0:00:00 13.2 - 33, 41 (Avg:41)
167 Mark Nimon Two Jays John Thomas Lame L1 0:00:00 19.5 - 37, 54 (Avg:54)
170 Christine Willcox Count Crysain Widthdrawn L1 0:00:00 - - 37, 48 (Avg:48)
Middleweight
119 Fiona Fenech Cedar Springs The Full Monty 1 3:25:00 22.4, 24.4 23.41 36, 46, 51 (Avg:48)
104 Heather Parry Agape Genesis 2 3:27:00 22.6, 23.7 23.19 33, 38, 41 (Avg:39)
141 Craig Ellison Malcolm 3 3:46:00 21.4, 21.0 21.24 30, 42, 43 (Avg:42)
118 Gayle Holmes Captain's Creek Rupert 4 3:49:00 19.8, 22.2 20.96 42, 46, 49 (Avg:47)
133 Donna Brooker Hirstglen Conquistador 5 4:05:00 19.6, 19.5 19.59 40, 42, 58 (Avg:50)
159 Stephen Gray Ashraf Sparkling Panache 6 4:07:00 19.3, 19.5 19.43 37, 45, 51 (Avg:48)
158 Carolyn Strahan Talika Fadar 6 4:07:00 19.3, 19.5 19.43 36, 40, 48 (Avg:44)
117 Akhmed Pshunov Aloha Spartacus 8 4:09:00 19.8, 18.7 19.28 33, 44, 50 (Avg:47)
177 Ken Moir Ambira Bansim 9 4:11:00 19.5, 18.7 19.12 40, 44, 38 (Avg:41)
173 Billie Barron Shardell Sharana Golden 10 4:14:00 21.2, 17.0 18.90 34, 44, 51 (Avg:47)
148 Aanja Hamelink Kilkivan Msalute 11 4:18:00 19.0, 18.1 18.60 38, 44, 53 (Avg:48)
147 Dale Hargreaves Deep Forest Contest 12 4:32:00 19.3, 16.2 17.65 37, 46, 48 (Avg:47)
165 Jayne Fry Rivalyn Shianne 13 4:57:00 18.0, 14.6 16.16 34, 37, 42 (Avg:39)
110 Chris Enstram Millers Park Tahlia 14 5:56:00 13.9, 13.0 13.48 38, 38, 44 (Avg:41)
153 Prutirat Serireongrith Bullarto Fiorelli 15 6:01:00 13.3, 13.2 13.30 41, 43, 41 (Avg:42)
154 Peter Birch Hillbrae May 16 6:10:00 15.3, 11.2 12.97 29, 34, 46 (Avg:40)
155 Sandra Birch Hillbrae Riley 16 6:10:00 15.3, 11.2 12.97 32, 40, 49 (Avg:44)
172 Jean Taylor Nerim 18 6:20:00 12.6, 12.6 12.63 31, 36, 45 (Avg:40)
121 Lisa Sanchez Maf-Ue Sahmet 19 6:22:00 12.6, 12.4 12.57 36, 42, 46 (Avg:44)
108 Rhonda Toon Roxborough Peekarra 20 6:43:00 12.9, 11.0 11.91 36, 42, 60 (Avg:51)
131 Robyn Pembroke Mt Eerwah Silverado 21 6:48:00 12.3, 11.2 11.76 27, 38, 37 (Avg:37)
163 Ben Caslick Hazeldean Jedaa 22 6:53:00 11.2, 11.9 11.62 29, 34, 43 (Avg:38)
161 Ashley Caslick A'Landell Intent 22 6:53:00 11.2, 11.9 11.62 33, 44, 48 (Avg:46)
106 Jen Weise Matta Mia Diheb 24 6:55:00 11.5, 11.5 11.57 30, 38, 50 (Avg:44)
175 Graysen Clarke Latif Jemima 25 7:56:00 10.7, 9.5 10.08 24, 34, 44 (Avg:39)
142 Jo Weismann Eastwinds Song of Joy 25 7:56:00 10.1, 9.9 10.08 41, 51, 55 (Avg:53)
130 Angela Head Lilonda Count Richael 27 8:02:00 10.9, 9.1 9.96 32, 42, 46 (Avg:44)
145 Lyndell Abercrombie Lindall Aleila 28 8:09:00 9.5, 10.0 9.82 23, 33, 38 (Avg:35)
134 Ursula Keenan Hirstglen Zepplin 29 8:10:00 10.7, 9.0 9.80 27, 39, 41 (Avg:40)
136 Vanessa Tiffen Hirstglen Masquerade 30 8:11:00 10.7, 8.9 9.78 37, 45, 55 (Avg:50)
101 Libby Nichols Tallaroon Crystal Rose Heart Rate L2 0:00:00 10.6, 9.5 - 34, 47, 68 (Avg:57)
152 Rod Strahan Shardell Azrark Lame L2 0:00:00 13.3, 13.2 - 30, 37, 44 (Avg:40)
120 Judy Battams Denwells Lenzwela Lame L1 0:00:00 22.6 - 29, 43 (Avg:43)
113 Caroline Fitzgerald Lanamere Lateefa Widthdrawn L1 0:00:00 - - 24, 42 (Avg:42)
135 Jessica Hewitt Agecroft Fada Widthdrawn L1 0:00:00 - - 41, 42 (Avg:42)
174 Albie Knight Burren-dah Mustang Lame L1 0:00:00 10.0 - 34, 44 (Avg:44)
171 Amanda Stirling Aqaba Gabriella Lame L1 0:00:00 9.5 - 32, 46 (Avg:46)
Lightweight
180 Sam Marquis Marja Tippany 1 3:26:00 22.6, 23.9 23.30 33, 40, 47 (Avg:43)
127 Katrina Draegar Carnarvon Cavalier 2 3:50:00 20.6, 21.0 20.87 37, 48, 41 (Avg:44)
132 Amanda Powell Shonavale Kamilla 3 4:06:00 21.0, 18.1 19.51 39, 50, 48 (Avg:49)
122 Terri Anderson Hillbrae Kaszan 4 4:08:00 19.0, 19.6 19.35 27, 40, 39 (Avg:39)
169 Emma Kirby Bremervale Bandyt 5 4:10:00 21.2, 17.5 19.20 36, 45, 45 (Avg:45)
107 Clare Fleming Memento 6 4:13:00 19.9, 18.0 18.97 42, 51, 59 (Avg:55)
103 Sarah Love Dmar Dancing Diplomat 7 4:17:00 19.5, 17.9 18.68 31, 47, 43 (Avg:45)
149 Julie Fletcher Hillbrae Garnet 8 6:09:00 14.9, 11.5 13.01 29, 38, 47 (Avg:42)
162 Ute Jordan Birru Avishaah 9 6:21:00 12.9, 12.2 12.60 33, 36, 58 (Avg:47)
156 Christine Christie Duke 10 6:23:00 12.9, 12.1 12.53 40, 50, 55 (Avg:52)
128 Hayley Murphy Mt Eerwah Nikita 11 6:48:00 12.3, 11.2 11.76 39, 39, 37 (Avg:38)
164 Cindy Harris Zanabah Park Shylock 12 6:52:00 12.9, 10.5 11.65 36, 50, 48 (Avg:49)
179 Christine Ablett Lindall Falen 13 8:07:00 9.5, 10.1 9.86 35, 37, 46 (Avg:41)
105 Jocelyn Barnes Gembira Lame L2 0:00:00 11.5, 11.5 - 34, 41, 47 (Avg:44)
139 Raelene Berry Abbeywood Aladdin Lame L1 0:00:00 19.9 - 42, 42 (Avg:42)
124 Patricia Croft Shazaraine Lame L1 0:00:00 12.3 - 36, 42 (Avg:42)
Junior
140 Tasha Jeremy Esau 1 3:45:00 21.4, 21.2 21.33 35, 46, 58 (Avg:52)
123 David Anderson Jnr Tobinlee Ishmale 2 6:11:00 13.2, 12.6 12.94 30, 37, 42 (Avg:39)
168 Amaya Thomas Abbeywood Dallas 3 6:34:00 12.9, 11.5 12.18 32, 38, 47 (Avg:42)
143 Jess Dakin Allira Park Wings Of Fire 4 7:55:00 10.1, 10.0 10.11 29, 36, 47 (Avg:41)
116 Ingrid Ambrosiussen Shanti 5 8:02:00 10.9, 9.1 9.96 38, 40, 42 (Avg:41)
125 Jade Vergis Meltharina Maralyc 6 8:05:00 10.6, 9.2 9.90 37, 42, 47 (Avg:44)
157 Natalia Suel Die Kinder Jasper 7 8:08:00 9.5, 10.0 9.84 30, 33, 37 (Avg:35)
144 Jasmine Shields Midu Ariel Heart Rate L2 0:00:00 21.4, 21.2 - 30, 48, 63 (Avg:55)